Terminal Aerodrome Forecast
Issued by NWS

Home | Current Version | Previous Version | Text Only | Print | Product List | Glossary On
Versions: 1 2 3 4 5 6 7 8 9 10 11 12 13 14 15
000
FTUS45 KBOU 161148
TAFBJC
TAF
KBJC 161148Z 1612/1712 24006KT P6SM FEW200
     FM161500 VRB04KT P6SM FEW200
     FM162000 08005KT P6SM FEW200
     FM170100 29005KT P6SM FEW200=

USA.gov is the U.S. government's official web portal to all federal, state and local government web resources and services.